sensor_id;sensor_type;location;lat;lon;timestamp;temperature;humidity
54006;DHT22;39919;38.160;-122.260;2022-07-11T00:00:15;31.90;47.20
54006;DHT22;39919;38.160;-122.260;2022-07-11T00:02:44;31.90;47.00
54006;DHT22;39919;38.160;-122.260;2022-07-11T00:05:17;32.00;47.20
54006;DHT22;39919;38.160;-122.260;2022-07-11T00:07:46;32.00;46.70
54006;DHT22;39919;38.160;-122.260;2022-07-11T00:10:15;32.00;47.40
54006;DHT22;39919;38.160;-122.260;2022-07-11T00:12:44;32.00;47.40
54006;DHT22;39919;38.160;-122.260;2022-07-11T00:15:13;31.90;47.20
54006;DHT22;39919;38.160;-122.260;2022-07-11T00:17:42;31.90;46.80
54006;DHT22;39919;38.160;-122.260;2022-07-11T00:20:12;31.80;47.00
54006;DHT22;39919;38.160;-122.260;2022-07-11T00:22:42;31.80;47.10
54006;DHT22;39919;38.160;-122.260;2022-07-11T00:25:11;31.70;46.90
54006;DHT22;39919;38.160;-122.260;2022-07-11T00:27:40;31.60;46.50
54006;DHT22;39919;38.160;-122.260;2022-07-11T00:30:10;31.50;46.60
54006;DHT22;39919;38.160;-122.260;2022-07-11T00:32:40;31.50;46.90
54006;DHT22;39919;38.160;-122.260;2022-07-11T00:35:09;31.40;47.20
54006;DHT22;39919;38.160;-122.260;2022-07-11T00:37:38;31.30;47.30
54006;DHT22;39919;38.160;-122.260;2022-07-11T00:40:12;31.30;47.20
54006;DHT22;39919;38.160;-122.260;2022-07-11T00:42:43;31.30;47.20
54006;DHT22;39919;38.160;-122.260;2022-07-11T00:45:12;31.30;47.20
54006;DHT22;39919;38.160;-122.260;2022-07-11T00:47:41;31.30;47.20
54006;DHT22;39919;38.160;-122.260;2022-07-11T00:50:10;31.20;47.20
54006;DHT22;39919;38.160;-122.260;2022-07-11T00:52:40;31.10;47.50
54006;DHT22;39919;38.160;-122.260;2022-07-11T00:55:12;31.00;48.10
54006;DHT22;39919;38.160;-122.260;2022-07-11T00:57:41;31.00;47.90
54006;DHT22;39919;38.160;-122.260;2022-07-11T01:00:11;30.90;48.10
54006;DHT22;39919;38.160;-122.260;2022-07-11T01:02:40;30.90;48.10
54006;DHT22;39919;38.160;-122.260;2022-07-11T01:05:10;30.80;48.20
54006;DHT22;39919;38.160;-122.260;2022-07-11T01:07:39;30.80;48.40
54006;DHT22;39919;38.160;-122.260;2022-07-11T01:10:08;30.70;48.10
54006;DHT22;39919;38.160;-122.260;2022-07-11T01:12:39;30.70;48.40
54006;DHT22;39919;38.160;-122.260;2022-07-11T01:15:08;30.60;48.60
54006;DHT22;39919;38.160;-122.260;2022-07-11T01:17:38;30.60;48.90
54006;DHT22;39919;38.160;-122.260;2022-07-11T01:20:08;30.60;48.60
54006;DHT22;39919;38.160;-122.260;2022-07-11T01:22:43;30.50;48.80
54006;DHT22;39919;38.160;-122.260;2022-07-11T01:25:15;30.50;48.70
54006;DHT22;39919;38.160;-122.260;2022-07-11T01:27:57;30.50;48.70
54006;DHT22;39919;38.160;-122.260;2022-07-11T01:30:28;30.40;48.80
54006;DHT22;39919;38.160;-122.260;2022-07-11T01:32:57;30.40;48.90
54006;DHT22;39919;38.160;-122.260;2022-07-11T01:35:27;30.40;49.20
54006;DHT22;39919;38.160;-122.260;2022-07-11T01:37:56;30.30;49.20
54006;DHT22;39919;38.160;-122.260;2022-07-11T01:40:27;30.30;49.00
54006;DHT22;39919;38.160;-122.260;2022-07-11T01:42:56;30.20;49.20
54006;DHT22;39919;38.160;-122.260;2022-07-11T01:45:25;30.10;49.40
54006;DHT22;39919;38.160;-122.260;2022-07-11T01:47:54;30.10;49.50
54006;DHT22;39919;38.160;-122.260;2022-07-11T01:50:23;30.00;49.20
54006;DHT22;39919;38.160;-122.260;2022-07-11T01:52:52;30.00;49.70
54006;DHT22;39919;38.160;-122.260;2022-07-11T01:55:21;29.90;49.90
54006;DHT22;39919;38.160;-122.260;2022-07-11T01:57:52;29.90;50.00
54006;DHT22;39919;38.160;-122.260;2022-07-11T02:00:21;29.80;50.00
54006;DHT22;39919;38.160;-122.260;2022-07-11T02:02:50;29.80;50.30
54006;DHT22;39919;38.160;-122.260;2022-07-11T02:05:19;29.70;50.50
54006;DHT22;39919;38.160;-122.260;2022-07-11T02:07:48;29.60;50.50
54006;DHT22;39919;38.160;-122.260;2022-07-11T02:10:34;29.50;50.70
54006;DHT22;39919;38.160;-122.260;2022-07-11T02:13:05;29.50;50.70
54006;DHT22;39919;38.160;-122.260;2022-07-11T02:15:34;29.40;50.80
54006;DHT22;39919;38.160;-122.260;2022-07-11T02:18:03;29.30;51.20
54006;DHT22;39919;38.160;-122.260;2022-07-11T02:20:32;29.20;51.00
54006;DHT22;39919;38.160;-122.260;2022-07-11T02:23:01;29.20;51.30
54006;DHT22;39919;38.160;-122.260;2022-07-11T02:25:30;29.10;51.10
54006;DHT22;39919;38.160;-122.260;2022-07-11T02:28:04;29.00;51.30
54006;DHT22;39919;38.160;-122.260;2022-07-11T02:30:33;29.00;51.60
54006;DHT22;39919;38.160;-122.260;2022-07-11T02:33:02;28.90;51.90
54006;DHT22;39919;38.160;-122.260;2022-07-11T02:35:31;28.80;52.10
54006;DHT22;39919;38.160;-122.260;2022-07-11T02:38:00;28.70;51.90
54006;DHT22;39919;38.160;-122.260;2022-07-11T02:40:29;28.70;52.70
54006;DHT22;39919;38.160;-122.260;2022-07-11T02:42:58;28.50;52.10
54006;DHT22;39919;38.160;-122.260;2022-07-11T02:45:29;28.50;52.20
54006;DHT22;39919;38.160;-122.260;2022-07-11T02:47:58;28.50;52.20
54006;DHT22;39919;38.160;-122.260;2022-07-11T02:50:27;28.40;52.10
54006;DHT22;39919;38.160;-122.260;2022-07-11T02:52:56;28.30;52.00
54006;DHT22;39919;38.160;-122.260;2022-07-11T02:55:26;28.20;52.10
54006;DHT22;39919;38.160;-122.260;2022-07-11T02:57:55;28.20;52.20
54006;DHT22;39919;38.160;-122.260;2022-07-11T03:00:24;28.10;52.10
54006;DHT22;39919;38.160;-122.260;2022-07-11T03:02:54;28.00;52.20
54006;DHT22;39919;38.160;-122.260;2022-07-11T03:05:24;28.00;52.30
54006;DHT22;39919;38.160;-122.260;2022-07-11T03:07:53;27.90;52.30
54006;DHT22;39919;38.160;-122.260;2022-07-11T03:10:22;27.90;52.60
54006;DHT22;39919;38.160;-122.260;2022-07-11T03:12:52;27.80;52.70
54006;DHT22;39919;38.160;-122.260;2022-07-11T03:15:21;27.70;52.70
54006;DHT22;39919;38.160;-122.260;2022-07-11T03:17:50;27.60;53.00
54006;DHT22;39919;38.160;-122.260;2022-07-11T03:20:21;27.60;53.50
54006;DHT22;39919;38.160;-122.260;2022-07-11T03:22:50;27.50;53.70
54006;DHT22;39919;38.160;-122.260;2022-07-11T03:25:19;27.40;53.70
54006;DHT22;39919;38.160;-122.260;2022-07-11T03:27:49;27.30;53.80
54006;DHT22;39919;38.160;-122.260;2022-07-11T03:30:18;27.20;54.00
54006;DHT22;39919;38.160;-122.260;2022-07-11T03:32:47;27.20;54.40
54006;DHT22;39919;38.160;-122.260;2022-07-11T03:35:16;27.10;54.80
54006;DHT22;39919;38.160;-122.260;2022-07-11T03:38:03;27.00;54.80
54006;DHT22;39919;38.160;-122.260;2022-07-11T03:40:33;26.90;54.80
54006;DHT22;39919;38.160;-122.260;2022-07-11T03:43:03;26.80;55.40
54006;DHT22;39919;38.160;-122.260;2022-07-11T03:45:32;26.70;56.00
54006;DHT22;39919;38.160;-122.260;2022-07-11T03:48:01;26.60;56.10
54006;DHT22;39919;38.160;-122.260;2022-07-11T03:50:30;26.50;56.30
54006;DHT22;39919;38.160;-122.260;2022-07-11T03:53:02;26.40;56.40
54006;DHT22;39919;38.160;-122.260;2022-07-11T03:55:31;25.80;56.20
54006;DHT22;39919;38.160;-122.260;2022-07-11T03:58:00;26.20;56.50
54006;DHT22;39919;38.160;-122.260;2022-07-11T04:00:29;26.20;56.70
54006;DHT22;39919;38.160;-122.260;2022-07-11T04:02:59;26.00;57.10
54006;DHT22;39919;38.160;-122.260;2022-07-11T04:05:28;25.90;57.10
54006;DHT22;39919;38.160;-122.260;2022-07-11T04:07:57;25.80;56.80
54006;DHT22;39919;38.160;-122.260;2022-07-11T04:10:27;25.70;57.20
54006;DHT22;39919;38.160;-122.260;2022-07-11T04:12:56;25.70;57.30
54006;DHT22;39919;38.160;-122.260;2022-07-11T04:15:28;25.60;57.90
54006;DHT22;39919;38.160;-122.260;2022-07-11T04:17:57;25.50;58.00
54006;DHT22;39919;38.160;-122.260;2022-07-11T04:20:28;25.40;58.50
54006;DHT22;39919;38.160;-122.260;2022-07-11T04:22:57;25.30;58.70
54006;DHT22;39919;38.160;-122.260;2022-07-11T04:25:28;25.20;59.10
54006;DHT22;39919;38.160;-122.260;2022-07-11T04:27:57;25.20;58.90
54006;DHT22;39919;38.160;-122.260;2022-07-11T04:30:26;25.10;59.30
54006;DHT22;39919;38.160;-122.260;2022-07-11T04:32:56;25.00;60.00
54006;DHT22;39919;38.160;-122.260;2022-07-11T04:35:25;24.90;60.60
54006;DHT22;39919;38.160;-122.260;2022-07-11T04:37:55;24.80;60.30
54006;DHT22;39919;38.160;-122.260;2022-07-11T04:40:24;24.80;61.50
54006;DHT22;39919;38.160;-122.260;2022-07-11T04:42:55;24.70;61.20
54006;DHT22;39919;38.160;-122.260;2022-07-11T04:45:24;24.60;61.50
54006;DHT22;39919;38.160;-122.260;2022-07-11T04:47:53;24.50;61.40
54006;DHT22;39919;38.160;-122.260;2022-07-11T04:50:22;24.50;61.30
54006;DHT22;39919;38.160;-122.260;2022-07-11T04:52:51;24.30;61.40
54006;DHT22;39919;38.160;-122.260;2022-07-11T04:55:20;24.30;61.60
54006;DHT22;39919;38.160;-122.260;2022-07-11T04:57:49;24.20;61.50
54006;DHT22;39919;38.160;-122.260;2022-07-11T05:00:21;24.10;62.00
54006;DHT22;39919;38.160;-122.260;2022-07-11T05:02:50;24.00;62.30
54006;DHT22;39919;38.160;-122.260;2022-07-11T05:05:19;24.00;64.30
54006;DHT22;39919;38.160;-122.260;2022-07-11T05:07:50;23.90;67.80
54006;DHT22;39919;38.160;-122.260;2022-07-11T05:10:19;23.90;72.10
54006;DHT22;39919;38.160;-122.260;2022-07-11T05:12:48;23.80;72.80
54006;DHT22;39919;38.160;-122.260;2022-07-11T05:15:19;23.70;72.30
54006;DHT22;39919;38.160;-122.260;2022-07-11T05:17:48;23.60;73.00
54006;DHT22;39919;38.160;-122.260;2022-07-11T05:20:17;23.60;75.20
54006;DHT22;39919;38.160;-122.260;2022-07-11T05:22:46;23.60;77.50
54006;DHT22;39919;38.160;-122.260;2022-07-11T05:25:15;23.50;79.00
54006;DHT22;39919;38.160;-122.260;2022-07-11T05:27:44;23.40;80.80
54006;DHT22;39919;38.160;-122.260;2022-07-11T05:30:14;23.40;81.40
54006;DHT22;39919;38.160;-122.260;2022-07-11T05:32:46;23.30;82.60
54006;DHT22;39919;38.160;-122.260;2022-07-11T05:35:15;23.20;84.50
54006;DHT22;39919;38.160;-122.260;2022-07-11T05:37:46;23.10;84.40
54006;DHT22;39919;38.160;-122.260;2022-07-11T05:40:15;23.10;85.50
54006;DHT22;39919;38.160;-122.260;2022-07-11T05:42:44;23.10;87.00
54006;DHT22;39919;38.160;-122.260;2022-07-11T05:45:15;23.00;89.40
54006;DHT22;39919;38.160;-122.260;2022-07-11T05:47:47;22.90;92.00
54006;DHT22;39919;38.160;-122.260;2022-07-11T05:50:19;22.60;92.10
54006;DHT22;39919;38.160;-122.260;2022-07-11T05:52:49;22.70;90.60
54006;DHT22;39919;38.160;-122.260;2022-07-11T06:15:35;22.10;68.70
54006;DHT22;39919;38.160;-122.260;2022-07-11T06:18:06;21.90;69.50
54006;DHT22;39919;38.160;-122.260;2022-07-11T06:20:36;21.80;70.00
54006;DHT22;39919;38.160;-122.260;2022-07-11T06:23:07;21.70;70.60
54006;DHT22;39919;38.160;-122.260;2022-07-11T06:25:36;21.60;70.00
54006;DHT22;39919;38.160;-122.260;2022-07-11T06:28:05;21.50;70.00
54006;DHT22;39919;38.160;-122.260;2022-07-11T06:30:35;21.40;70.10
54006;DHT22;39919;38.160;-122.260;2022-07-11T06:33:07;21.30;70.10
54006;DHT22;39919;38.160;-122.260;2022-07-11T06:35:36;21.20;70.30
54006;DHT22;39919;38.160;-122.260;2022-07-11T06:38:06;21.20;70.40
54006;DHT22;39919;38.160;-122.260;2022-07-11T06:40:34;21.10;70.70
54006;DHT22;39919;38.160;-122.260;2022-07-11T06:43:03;21.00;70.90
54006;DHT22;39919;38.160;-122.260;2022-07-11T06:45:33;20.90;70.70
54006;DHT22;39919;38.160;-122.260;2022-07-11T06:48:09;20.90;71.20
54006;DHT22;39919;38.160;-122.260;2022-07-11T06:50:39;20.80;71.60
54006;DHT22;39919;38.160;-122.260;2022-07-11T06:53:08;20.70;71.50
54006;DHT22;39919;38.160;-122.260;2022-07-11T06:55:39;20.60;71.40
54006;DHT22;39919;38.160;-122.260;2022-07-11T06:58:09;20.60;71.20
54006;DHT22;39919;38.160;-122.260;2022-07-11T07:00:40;20.50;71.50
54006;DHT22;39919;38.160;-122.260;2022-07-11T07:03:11;20.50;71.30
54006;DHT22;39919;38.160;-122.260;2022-07-11T07:05:44;20.40;71.70
54006;DHT22;39919;38.160;-122.260;2022-07-11T07:08:18;20.40;72.10
54006;DHT22;39919;38.160;-122.260;2022-07-11T07:10:47;20.30;72.20
54006;DHT22;39919;38.160;-122.260;2022-07-11T07:13:17;20.20;72.10
54006;DHT22;39919;38.160;-122.260;2022-07-11T07:15:47;20.20;71.80
54006;DHT22;39919;38.160;-122.260;2022-07-11T07:18:18;20.20;72.00
54006;DHT22;39919;38.160;-122.260;2022-07-11T07:20:47;20.10;71.80
54006;DHT22;39919;38.160;-122.260;2022-07-11T07:23:18;20.10;71.80
54006;DHT22;39919;38.160;-122.260;2022-07-11T07:25:47;20.10;71.60
54006;DHT22;39919;38.160;-122.260;2022-07-11T07:28:17;20.00;71.30
54006;DHT22;39919;38.160;-122.260;2022-07-11T07:30:46;20.00;71.40
54006;DHT22;39919;38.160;-122.260;2022-07-11T07:33:20;20.00;72.20
54006;DHT22;39919;38.160;-122.260;2022-07-11T07:35:50;19.90;72.40
54006;DHT22;39919;38.160;-122.260;2022-07-11T07:38:19;19.90;73.00
54006;DHT22;39919;38.160;-122.260;2022-07-11T07:43:13;19.80;73.80
54006;DHT22;39919;38.160;-122.260;2022-07-11T07:45:42;19.80;73.70
54006;DHT22;39919;38.160;-122.260;2022-07-11T07:48:12;19.80;74.10
54006;DHT22;39919;38.160;-122.260;2022-07-11T07:50:42;19.70;73.80
54006;DHT22;39919;38.160;-122.260;2022-07-11T07:53:11;19.70;73.40
54006;DHT22;39919;38.160;-122.260;2022-07-11T07:55:41;19.70;74.10
54006;DHT22;39919;38.160;-122.260;2022-07-11T07:58:11;19.60;73.80
54006;DHT22;39919;38.160;-122.260;2022-07-11T08:00:43;19.60;74.00
54006;DHT22;39919;38.160;-122.260;2022-07-11T08:03:29;19.60;74.50
54006;DHT22;39919;38.160;-122.260;2022-07-11T08:06:00;19.60;75.20
54006;DHT22;39919;38.160;-122.260;2022-07-11T08:08:29;19.50;75.20
54006;DHT22;39919;38.160;-122.260;2022-07-11T08:10:58;19.50;74.80
54006;DHT22;39919;38.160;-122.260;2022-07-11T08:13:29;19.50;75.20
54006;DHT22;39919;38.160;-122.260;2022-07-11T08:15:58;19.50;75.50
54006;DHT22;39919;38.160;-122.260;2022-07-11T08:18:27;19.40;74.90
54006;DHT22;39919;38.160;-122.260;2022-07-11T08:21:00;19.40;74.80
54006;DHT22;39919;38.160;-122.260;2022-07-11T08:23:29;19.40;75.60
54006;DHT22;39919;38.160;-122.260;2022-07-11T08:25:58;19.40;76.30
54006;DHT22;39919;38.160;-122.260;2022-07-11T08:28:27;19.30;76.60
54006;DHT22;39919;38.160;-122.260;2022-07-11T08:31:00;19.30;76.60
54006;DHT22;39919;38.160;-122.260;2022-07-11T08:33:29;19.30;76.50
54006;DHT22;39919;38.160;-122.260;2022-07-11T08:40:57;19.20;77.90
54006;DHT22;39919;38.160;-122.260;2022-07-11T08:43:31;19.20;78.10
54006;DHT22;39919;38.160;-122.260;2022-07-11T08:46:00;19.20;78.40
54006;DHT22;39919;38.160;-122.260;2022-07-11T08:48:30;19.20;79.00
54006;DHT22;39919;38.160;-122.260;2022-07-11T08:51:02;19.10;79.30
54006;DHT22;39919;38.160;-122.260;2022-07-11T08:53:39;19.10;79.50
54006;DHT22;39919;38.160;-122.260;2022-07-11T08:56:11;19.10;79.40
54006;DHT22;39919;38.160;-122.260;2022-07-11T08:58:45;19.00;79.40
54006;DHT22;39919;38.160;-122.260;2022-07-11T09:01:16;19.00;79.60
54006;DHT22;39919;38.160;-122.260;2022-07-11T09:03:46;19.00;79.70
54006;DHT22;39919;38.160;-122.260;2022-07-11T09:06:19;18.90;79.70
54006;DHT22;39919;38.160;-122.260;2022-07-11T09:08:49;18.90;80.00
54006;DHT22;39919;38.160;-122.260;2022-07-11T09:11:18;18.90;80.00
54006;DHT22;39919;38.160;-122.260;2022-07-11T09:13:48;18.90;80.90
54006;DHT22;39919;38.160;-122.260;2022-07-11T09:16:18;18.90;81.30
54006;DHT22;39919;38.160;-122.260;2022-07-11T09:18:47;18.80;81.10
54006;DHT22;39919;38.160;-122.260;2022-07-11T09:21:18;18.80;81.10
54006;DHT22;39919;38.160;-122.260;2022-07-11T09:24:05;18.80;80.90
54006;DHT22;39919;38.160;-122.260;2022-07-11T09:27:11;18.80;80.90
54006;DHT22;39919;38.160;-122.260;2022-07-11T09:29:43;18.80;81.50
54006;DHT22;39919;38.160;-122.260;2022-07-11T09:32:13;18.80;81.30
54006;DHT22;39919;38.160;-122.260;2022-07-11T09:34:59;18.80;81.90
54006;DHT22;39919;38.160;-122.260;2022-07-11T09:37:45;18.70;81.80
54006;DHT22;39919;38.160;-122.260;2022-07-11T09:40:19;18.70;81.80
54006;DHT22;39919;38.160;-122.260;2022-07-11T09:42:50;18.70;81.40
54006;DHT22;39919;38.160;-122.260;2022-07-11T09:45:23;18.70;81.30
54006;DHT22;39919;38.160;-122.260;2022-07-11T09:47:56;18.70;82.00
54006;DHT22;39919;38.160;-122.260;2022-07-11T09:50:28;18.60;81.70
54006;DHT22;39919;38.160;-122.260;2022-07-11T09:53:14;18.70;82.00
54006;DHT22;39919;38.160;-122.260;2022-07-11T09:55:45;18.70;82.30
54006;DHT22;39919;38.160;-122.260;2022-07-11T09:58:15;18.70;82.00
54006;DHT22;39919;38.160;-122.260;2022-07-11T10:00:45;18.60;82.60
54006;DHT22;39919;38.160;-122.260;2022-07-11T10:03:14;18.60;82.30
54006;DHT22;39919;38.160;-122.260;2022-07-11T10:05:45;18.60;82.20
54006;DHT22;39919;38.160;-122.260;2022-07-11T10:08:17;18.60;82.30
54006;DHT22;39919;38.160;-122.260;2022-07-11T10:10:46;18.60;82.80
54006;DHT22;39919;38.160;-122.260;2022-07-11T10:13:15;18.50;82.70
54006;DHT22;39919;38.160;-122.260;2022-07-11T10:15:46;18.50;82.70
54006;DHT22;39919;38.160;-122.260;2022-07-11T10:18:29;18.50;82.80
54006;DHT22;39919;38.160;-122.260;2022-07-11T10:21:04;18.50;82.30
54006;DHT22;39919;38.160;-122.260;2022-07-11T10:26:11;18.50;82.10
54006;DHT22;39919;38.160;-122.260;2022-07-11T10:28:51;18.50;81.70
54006;DHT22;39919;38.160;-122.260;2022-07-11T10:31:22;18.50;82.50
54006;DHT22;39919;38.160;-122.260;2022-07-11T10:34:02;18.40;82.00
54006;DHT22;39919;38.160;-122.260;2022-07-11T10:36:32;18.40;81.30
54006;DHT22;39919;38.160;-122.260;2022-07-11T10:39:29;18.40;81.30
54006;DHT22;39919;38.160;-122.260;2022-07-11T10:42:19;18.40;81.80
54006;DHT22;39919;38.160;-122.260;2022-07-11T10:44:50;18.30;81.40
54006;DHT22;39919;38.160;-122.260;2022-07-11T10:47:32;18.30;81.80
54006;DHT22;39919;38.160;-122.260;2022-07-11T10:50:16;18.30;81.70
54006;DHT22;39919;38.160;-122.260;2022-07-11T10:52:56;18.30;81.20
54006;DHT22;39919;38.160;-122.260;2022-07-11T10:55:46;18.30;81.30
54006;DHT22;39919;38.160;-122.260;2022-07-11T10:58:20;18.20;81.30
54006;DHT22;39919;38.160;-122.260;2022-07-11T11:01:08;18.20;81.40
54006;DHT22;39919;38.160;-122.260;2022-07-11T11:03:38;18.20;81.00
54006;DHT22;39919;38.160;-122.260;2022-07-11T11:06:08;18.20;80.90
54006;DHT22;39919;38.160;-122.260;2022-07-11T11:08:44;18.10;80.50
54006;DHT22;39919;38.160;-122.260;2022-07-11T11:11:49;18.10;80.70
54006;DHT22;39919;38.160;-122.260;2022-07-11T11:14:22;18.10;81.10
54006;DHT22;39919;38.160;-122.260;2022-07-11T11:16:53;18.10;81.50
54006;DHT22;39919;38.160;-122.260;2022-07-11T11:19:53;18.00;82.10
54006;DHT22;39919;38.160;-122.260;2022-07-11T11:22:23;18.00;81.60
54006;DHT22;39919;38.160;-122.260;2022-07-11T11:24:55;18.00;81.70
54006;DHT22;39919;38.160;-122.260;2022-07-11T11:27:27;17.90;82.10
54006;DHT22;39919;38.160;-122.260;2022-07-11T11:29:58;17.90;82.80
54006;DHT22;39919;38.160;-122.260;2022-07-11T11:32:30;17.90;82.90
54006;DHT22;39919;38.160;-122.260;2022-07-11T11:35:01;17.90;82.90
54006;DHT22;39919;38.160;-122.260;2022-07-11T11:37:34;17.90;83.40
54006;DHT22;39919;38.160;-122.260;2022-07-11T11:40:04;17.90;85.80
54006;DHT22;39919;38.160;-122.260;2022-07-11T11:42:37;17.90;83.60
54006;DHT22;39919;38.160;-122.260;2022-07-11T11:45:08;17.80;83.80
54006;DHT22;39919;38.160;-122.260;2022-07-11T11:47:47;17.80;84.30
54006;DHT22;39919;38.160;-122.260;2022-07-11T11:50:17;17.80;85.20
54006;DHT22;39919;38.160;-122.260;2022-07-11T11:52:46;17.80;85.40
54006;DHT22;39919;38.160;-122.260;2022-07-11T11:55:15;17.80;85.80
54006;DHT22;39919;38.160;-122.260;2022-07-11T11:57:48;17.70;87.80
54006;DHT22;39919;38.160;-122.260;2022-07-11T12:00:22;17.70;89.40
54006;DHT22;39919;38.160;-122.260;2022-07-11T12:02:53;17.70;89.90
54006;DHT22;39919;38.160;-122.260;2022-07-11T12:05:22;17.70;88.80
54006;DHT22;39919;38.160;-122.260;2022-07-11T12:07:53;17.70;86.80
54006;DHT22;39919;38.160;-122.260;2022-07-11T12:10:22;17.70;84.80
54006;DHT22;39919;38.160;-122.260;2022-07-11T12:12:55;17.60;84.30
54006;DHT22;39919;38.160;-122.260;2022-07-11T12:15:30;17.60;83.60
54006;DHT22;39919;38.160;-122.260;2022-07-11T12:18:02;17.50;83.20
54006;DHT22;39919;38.160;-122.260;2022-07-11T12:20:38;17.50;83.30
54006;DHT22;39919;38.160;-122.260;2022-07-11T12:23:12;17.50;83.10
54006;DHT22;39919;38.160;-122.260;2022-07-11T12:25:42;17.50;82.70
54006;DHT22;39919;38.160;-122.260;2022-07-11T12:28:19;17.50;82.40
54006;DHT22;39919;38.160;-122.260;2022-07-11T12:30:55;17.50;82.20
54006;DHT22;39919;38.160;-122.260;2022-07-11T12:33:25;17.40;82.50
54006;DHT22;39919;38.160;-122.260;2022-07-11T12:35:59;17.40;83.70
54006;DHT22;39919;38.160;-122.260;2022-07-11T12:38:49;17.40;83.50
54006;DHT22;39919;38.160;-122.260;2022-07-11T12:41:19;17.40;83.20
54006;DHT22;39919;38.160;-122.260;2022-07-11T12:43:51;17.40;83.30
54006;DHT22;39919;38.160;-122.260;2022-07-11T12:46:38;17.40;83.60
54006;DHT22;39919;38.160;-122.260;2022-07-11T12:49:10;17.40;83.50
54006;DHT22;39919;38.160;-122.260;2022-07-11T12:51:41;17.40;83.10
54006;DHT22;39919;38.160;-122.260;2022-07-11T12:54:12;17.30;83.80
54006;DHT22;39919;38.160;-122.260;2022-07-11T12:56:51;17.30;83.80
54006;DHT22;39919;38.160;-122.260;2022-07-11T12:59:26;17.30;83.30
54006;DHT22;39919;38.160;-122.260;2022-07-11T13:01:57;17.30;83.20
54006;DHT22;39919;38.160;-122.260;2022-07-11T13:04:31;17.30;83.60
54006;DHT22;39919;38.160;-122.260;2022-07-11T13:07:19;17.30;83.40
54006;DHT22;39919;38.160;-122.260;2022-07-11T13:10:07;17.30;83.20
54006;DHT22;39919;38.160;-122.260;2022-07-11T13:12:36;17.30;83.30
54006;DHT22;39919;38.160;-122.260;2022-07-11T13:15:14;17.30;83.80
54006;DHT22;39919;38.160;-122.260;2022-07-11T13:17:48;17.30;84.00
54006;DHT22;39919;38.160;-122.260;2022-07-11T13:20:18;17.30;84.40
54006;DHT22;39919;38.160;-122.260;2022-07-11T13:22:50;17.30;84.40
54006;DHT22;39919;38.160;-122.260;2022-07-11T13:25:21;17.30;84.70
54006;DHT22;39919;38.160;-122.260;2022-07-11T13:27:51;17.30;84.50
54006;DHT22;39919;38.160;-122.260;2022-07-11T13:30:24;17.40;84.40
54006;DHT22;39919;38.160;-122.260;2022-07-11T13:32:56;17.40;84.20
54006;DHT22;39919;38.160;-122.260;2022-07-11T13:35:26;17.40;84.60
54006;DHT22;39919;38.160;-122.260;2022-07-11T13:37:56;17.40;85.00
54006;DHT22;39919;38.160;-122.260;2022-07-11T13:40:23;17.50;85.20
54006;DHT22;39919;38.160;-122.260;2022-07-11T13:42:55;17.50;85.20
54006;DHT22;39919;38.160;-122.260;2022-07-11T13:45:28;17.60;85.10
54006;DHT22;39919;38.160;-122.260;2022-07-11T13:47:57;17.60;85.00
54006;DHT22;39919;38.160;-122.260;2022-07-11T13:50:27;17.70;85.00
54006;DHT22;39919;38.160;-122.260;2022-07-11T13:52:57;17.70;85.00
54006;DHT22;39919;38.160;-122.260;2022-07-11T13:55:26;17.90;84.90
54006;DHT22;39919;38.160;-122.260;2022-07-11T13:57:57;17.90;84.60
54006;DHT22;39919;38.160;-122.260;2022-07-11T14:00:29;18.00;84.60
54006;DHT22;39919;38.160;-122.260;2022-07-11T14:02:59;18.10;84.60
54006;DHT22;39919;38.160;-122.260;2022-07-11T14:05:28;18.20;84.50
54006;DHT22;39919;38.160;-122.260;2022-07-11T14:07:59;18.30;84.70
54006;DHT22;39919;38.160;-122.260;2022-07-11T14:10:29;18.40;84.40
54006;DHT22;39919;38.160;-122.260;2022-07-11T14:13:00;18.50;84.20
54006;DHT22;39919;38.160;-122.260;2022-07-11T14:15:32;18.60;84.20
54006;DHT22;39919;38.160;-122.260;2022-07-11T14:18:01;18.70;83.90
54006;DHT22;39919;38.160;-122.260;2022-07-11T14:20:30;18.80;84.00
54006;DHT22;39919;38.160;-122.260;2022-07-11T14:23:00;18.90;84.00
54006;DHT22;39919;38.160;-122.260;2022-07-11T14:25:31;19.00;83.80
54006;DHT22;39919;38.160;-122.260;2022-07-11T14:28:01;19.10;83.50
54006;DHT22;39919;38.160;-122.260;2022-07-11T14:30:34;19.30;83.60
54006;DHT22;39919;38.160;-122.260;2022-07-11T14:33:08;19.40;83.70
54006;DHT22;39919;38.160;-122.260;2022-07-11T14:35:38;19.50;83.30
54006;DHT22;39919;38.160;-122.260;2022-07-11T14:38:08;19.70;83.70
54006;DHT22;39919;38.160;-122.260;2022-07-11T14:40:37;19.80;82.90
54006;DHT22;39919;38.160;-122.260;2022-07-11T14:43:06;19.90;82.50
54006;DHT22;39919;38.160;-122.260;2022-07-11T14:45:37;20.00;82.30
54006;DHT22;39919;38.160;-122.260;2022-07-11T14:48:07;20.20;82.00
54006;DHT22;39919;38.160;-122.260;2022-07-11T14:50:37;20.30;81.70
54006;DHT22;39919;38.160;-122.260;2022-07-11T14:53:07;20.50;81.80
54006;DHT22;39919;38.160;-122.260;2022-07-11T14:55:37;20.80;82.40
54006;DHT22;39919;38.160;-122.260;2022-07-11T14:58:06;21.10;80.80
54006;DHT22;39919;38.160;-122.260;2022-07-11T15:00:38;21.50;79.70
54006;DHT22;39919;38.160;-122.260;2022-07-11T15:03:07;21.90;79.20
54006;DHT22;39919;38.160;-122.260;2022-07-11T15:05:52;22.40;79.70
54006;DHT22;39919;38.160;-122.260;2022-07-11T15:08:22;23.10;77.60
54006;DHT22;39919;38.160;-122.260;2022-07-11T15:11:08;23.80;75.20
54006;DHT22;39919;38.160;-122.260;2022-07-11T15:13:54;24.70;72.10
54006;DHT22;39919;38.160;-122.260;2022-07-11T15:16:28;25.50;70.30
54006;DHT22;39919;38.160;-122.260;2022-07-11T15:18:59;26.20;66.10
54006;DHT22;39919;38.160;-122.260;2022-07-11T15:21:29;27.00;60.50
54006;DHT22;39919;38.160;-122.260;2022-07-11T15:23:59;27.70;58.60
54006;DHT22;39919;38.160;-122.260;2022-07-11T15:26:32;28.40;56.00
54006;DHT22;39919;38.160;-122.260;2022-07-11T15:29:02;29.20;55.90
54006;DHT22;39919;38.160;-122.260;2022-07-11T15:31:38;29.90;54.20
54006;DHT22;39919;38.160;-122.260;2022-07-11T15:36:37;31.40;51.20
54006;DHT22;39919;38.160;-122.260;2022-07-11T15:39:08;32.20;51.40
54006;DHT22;39919;38.160;-122.260;2022-07-11T15:41:37;32.90;49.20
54006;DHT22;39919;38.160;-122.260;2022-07-11T15:44:06;33.60;45.60
54006;DHT22;39919;38.160;-122.260;2022-07-11T15:46:37;34.10;45.20